sensor_id;sensor_type;location;lat;lon;timestamp;temperature;humidity
21495;DHT22;10909;53.590;10.054;2022-10-31T00:00:48;16.80;72.30
21495;DHT22;10909;53.590;10.054;2022-10-31T00:03:14;16.80;72.30
21495;DHT22;10909;53.590;10.054;2022-10-31T00:05:48;16.70;72.30
21495;DHT22;10909;53.590;10.054;2022-10-31T00:08:14;16.70;72.40
21495;DHT22;10909;53.590;10.054;2022-10-31T00:10:41;16.70;72.40
21495;DHT22;10909;53.590;10.054;2022-10-31T00:13:08;16.70;72.40
21495;DHT22;10909;53.590;10.054;2022-10-31T00:15:35;16.70;72.50
21495;DHT22;10909;53.590;10.054;2022-10-31T00:18:02;16.70;72.50
21495;DHT22;10909;53.590;10.054;2022-10-31T00:20:28;16.70;72.60
21495;DHT22;10909;53.590;10.054;2022-10-31T00:22:57;16.60;72.50
21495;DHT22;10909;53.590;10.054;2022-10-31T00:25:23;16.60;72.60
21495;DHT22;10909;53.590;10.054;2022-10-31T00:27:49;16.60;72.60
21495;DHT22;10909;53.590;10.054;2022-10-31T00:30:14;16.60;72.70
21495;DHT22;10909;53.590;10.054;2022-10-31T00:32:40;16.60;72.70
21495;DHT22;10909;53.590;10.054;2022-10-31T00:35:06;16.60;72.80
21495;DHT22;10909;53.590;10.054;2022-10-31T00:37:32;16.60;72.70
21495;DHT22;10909;53.590;10.054;2022-10-31T00:39:57;16.60;72.70
21495;DHT22;10909;53.590;10.054;2022-10-31T00:42:23;16.60;72.70
21495;DHT22;10909;53.590;10.054;2022-10-31T00:44:48;16.60;72.80
21495;DHT22;10909;53.590;10.054;2022-10-31T00:47:14;16.50;72.80
21495;DHT22;10909;53.590;10.054;2022-10-31T00:49:40;16.50;72.80
21495;DHT22;10909;53.590;10.054;2022-10-31T00:52:05;16.50;72.90
21495;DHT22;10909;53.590;10.054;2022-10-31T00:54:31;16.50;72.90
21495;DHT22;10909;53.590;10.054;2022-10-31T00:56:57;16.50;72.90
21495;DHT22;10909;53.590;10.054;2022-10-31T00:59:23;16.50;73.00
21495;DHT22;10909;53.590;10.054;2022-10-31T01:01:49;16.50;73.00
21495;DHT22;10909;53.590;10.054;2022-10-31T01:04:14;16.50;73.00
21495;DHT22;10909;53.590;10.054;2022-10-31T01:06:40;16.50;73.10
21495;DHT22;10909;53.590;10.054;2022-10-31T01:09:06;16.50;73.20
21495;DHT22;10909;53.590;10.054;2022-10-31T01:11:31;16.50;73.40
21495;DHT22;10909;53.590;10.054;2022-10-31T01:13:57;16.50;73.40
21495;DHT22;10909;53.590;10.054;2022-10-31T01:16:24;16.50;74.20
21495;DHT22;10909;53.590;10.054;2022-10-31T01:18:50;16.50;73.50
21495;DHT22;10909;53.590;10.054;2022-10-31T01:21:19;16.50;73.70
21495;DHT22;10909;53.590;10.054;2022-10-31T01:23:45;16.50;74.00
21495;DHT22;10909;53.590;10.054;2022-10-31T01:26:14;16.50;74.10
21495;DHT22;10909;53.590;10.054;2022-10-31T01:28:45;16.50;74.40
21495;DHT22;10909;53.590;10.054;2022-10-31T01:31:11;16.60;74.70
21495;DHT22;10909;53.590;10.054;2022-10-31T01:33:37;16.60;74.60
21495;DHT22;10909;53.590;10.054;2022-10-31T01:36:20;16.60;74.70
21495;DHT22;10909;53.590;10.054;2022-10-31T01:38:47;16.70;75.10
21495;DHT22;10909;53.590;10.054;2022-10-31T01:41:16;16.70;74.90
21495;DHT22;10909;53.590;10.054;2022-10-31T01:43:50;16.70;74.90
21495;DHT22;10909;53.590;10.054;2022-10-31T01:48:48;16.70;75.00
21495;DHT22;10909;53.590;10.054;2022-10-31T01:51:16;16.80;75.10
21495;DHT22;10909;53.590;10.054;2022-10-31T01:53:44;16.80;75.20
21495;DHT22;10909;53.590;10.054;2022-10-31T01:56:12;16.80;75.30
21495;DHT22;10909;53.590;10.054;2022-10-31T01:58:39;16.80;75.40
21495;DHT22;10909;53.590;10.054;2022-10-31T02:01:05;16.80;75.40
21495;DHT22;10909;53.590;10.054;2022-10-31T02:03:31;16.80;75.40
21495;DHT22;10909;53.590;10.054;2022-10-31T02:05:57;16.80;75.40
21495;DHT22;10909;53.590;10.054;2022-10-31T02:08:28;16.80;75.50
21495;DHT22;10909;53.590;10.054;2022-10-31T02:10:55;16.80;75.70
21495;DHT22;10909;53.590;10.054;2022-10-31T02:13:22;16.80;75.70
21495;DHT22;10909;53.590;10.054;2022-10-31T02:15:58;16.90;75.80
21495;DHT22;10909;53.590;10.054;2022-10-31T02:18:25;16.90;76.80
21495;DHT22;10909;53.590;10.054;2022-10-31T02:32:09;16.90;76.00
21495;DHT22;10909;53.590;10.054;2022-10-31T02:37:14;16.90;76.10
21495;DHT22;10909;53.590;10.054;2022-10-31T02:39:59;16.90;76.10
21495;DHT22;10909;53.590;10.054;2022-10-31T02:45:42;16.90;76.60
21495;DHT22;10909;53.590;10.054;2022-10-31T02:48:24;16.90;76.00
21495;DHT22;10909;53.590;10.054;2022-10-31T02:50:58;16.90;76.50
21495;DHT22;10909;53.590;10.054;2022-10-31T02:53:25;16.90;76.20
21495;DHT22;10909;53.590;10.054;2022-10-31T02:56:20;16.90;76.10
21495;DHT22;10909;53.590;10.054;2022-10-31T02:58:57;16.90;76.50
21495;DHT22;10909;53.590;10.054;2022-10-31T03:04:31;16.90;76.40
21495;DHT22;10909;53.590;10.054;2022-10-31T03:07:11;16.80;76.30
21495;DHT22;10909;53.590;10.054;2022-10-31T03:12:25;16.80;76.50
21495;DHT22;10909;53.590;10.054;2022-10-31T03:17:58;16.80;76.50
21495;DHT22;10909;53.590;10.054;2022-10-31T03:20:30;16.70;76.80
21495;DHT22;10909;53.590;10.054;2022-10-31T03:23:01;16.70;76.50
21495;DHT22;10909;53.590;10.054;2022-10-31T03:25:29;16.70;76.50
21495;DHT22;10909;53.590;10.054;2022-10-31T03:27:56;16.70;76.60
21495;DHT22;10909;53.590;10.054;2022-10-31T03:30:24;16.70;76.60
21495;DHT22;10909;53.590;10.054;2022-10-31T03:32:53;16.70;76.70
21495;DHT22;10909;53.590;10.054;2022-10-31T03:35:22;16.70;76.80
21495;DHT22;10909;53.590;10.054;2022-10-31T03:37:51;16.70;76.80
21495;DHT22;10909;53.590;10.054;2022-10-31T03:40:19;16.60;76.80
21495;DHT22;10909;53.590;10.054;2022-10-31T03:42:53;16.60;76.70
21495;DHT22;10909;53.590;10.054;2022-10-31T03:45:25;16.60;76.90
21495;DHT22;10909;53.590;10.054;2022-10-31T03:47:52;16.60;76.90
21495;DHT22;10909;53.590;10.054;2022-10-31T03:50:19;16.60;76.70
21495;DHT22;10909;53.590;10.054;2022-10-31T03:55:49;16.60;77.20
21495;DHT22;10909;53.590;10.054;2022-10-31T03:58:23;16.60;77.50
21495;DHT22;10909;53.590;10.054;2022-10-31T04:00:51;16.50;77.10
21495;DHT22;10909;53.590;10.054;2022-10-31T04:03:22;16.50;77.00
21495;DHT22;10909;53.590;10.054;2022-10-31T04:05:52;16.50;77.10
21495;DHT22;10909;53.590;10.054;2022-10-31T04:08:21;16.50;77.10
21495;DHT22;10909;53.590;10.054;2022-10-31T04:10:49;16.50;77.10
21495;DHT22;10909;53.590;10.054;2022-10-31T04:13:20;16.50;77.10
21495;DHT22;10909;53.590;10.054;2022-10-31T04:15:48;16.40;77.30
21495;DHT22;10909;53.590;10.054;2022-10-31T04:18:15;16.40;77.30
21495;DHT22;10909;53.590;10.054;2022-10-31T04:20:41;16.40;77.40
21495;DHT22;10909;53.590;10.054;2022-10-31T04:23:23;16.40;77.40
21495;DHT22;10909;53.590;10.054;2022-10-31T04:25:49;16.40;78.10
21495;DHT22;10909;53.590;10.054;2022-10-31T04:28:15;16.40;77.50
21495;DHT22;10909;53.590;10.054;2022-10-31T04:30:40;16.40;78.40
21495;DHT22;10909;53.590;10.054;2022-10-31T04:33:06;16.40;77.70
21495;DHT22;10909;53.590;10.054;2022-10-31T04:35:32;16.40;77.70
21495;DHT22;10909;53.590;10.054;2022-10-31T04:37:57;16.40;77.80
21495;DHT22;10909;53.590;10.054;2022-10-31T04:40:23;16.40;77.90
21495;DHT22;10909;53.590;10.054;2022-10-31T04:42:49;16.40;78.00
21495;DHT22;10909;53.590;10.054;2022-10-31T04:45:14;16.40;78.00
21495;DHT22;10909;53.590;10.054;2022-10-31T04:47:40;16.40;78.00
21495;DHT22;10909;53.590;10.054;2022-10-31T04:50:07;16.40;78.10
21495;DHT22;10909;53.590;10.054;2022-10-31T04:52:38;16.40;78.10
21495;DHT22;10909;53.590;10.054;2022-10-31T04:55:03;16.40;78.20
21495;DHT22;10909;53.590;10.054;2022-10-31T04:57:29;16.40;78.30
21495;DHT22;10909;53.590;10.054;2022-10-31T04:59:55;16.40;78.50
21495;DHT22;10909;53.590;10.054;2022-10-31T05:02:20;16.40;78.60
21495;DHT22;10909;53.590;10.054;2022-10-31T05:04:46;16.40;78.60
21495;DHT22;10909;53.590;10.054;2022-10-31T05:07:11;16.40;78.60
21495;DHT22;10909;53.590;10.054;2022-10-31T05:09:37;16.40;78.60
21495;DHT22;10909;53.590;10.054;2022-10-31T05:12:03;16.40;78.70
21495;DHT22;10909;53.590;10.054;2022-10-31T05:14:28;16.40;78.70
21495;DHT22;10909;53.590;10.054;2022-10-31T05:20:18;16.50;79.20
21495;DHT22;10909;53.590;10.054;2022-10-31T05:22:48;16.50;78.60
21495;DHT22;10909;53.590;10.054;2022-10-31T05:25:15;16.50;78.60
21495;DHT22;10909;53.590;10.054;2022-10-31T05:27:42;16.50;78.80
21495;DHT22;10909;53.590;10.054;2022-10-31T05:30:09;16.50;78.80
21495;DHT22;10909;53.590;10.054;2022-10-31T05:32:46;16.50;78.90
21495;DHT22;10909;53.590;10.054;2022-10-31T05:35:15;16.50;79.10
21495;DHT22;10909;53.590;10.054;2022-10-31T05:37:41;16.50;78.90
21495;DHT22;10909;53.590;10.054;2022-10-31T05:40:10;16.60;78.90
21495;DHT22;10909;53.590;10.054;2022-10-31T05:42:41;16.50;78.90
21495;DHT22;10909;53.590;10.054;2022-10-31T05:45:09;16.50;78.90
21495;DHT22;10909;53.590;10.054;2022-10-31T05:47:35;16.60;79.60
21495;DHT22;10909;53.590;10.054;2022-10-31T05:50:01;16.60;78.90
21495;DHT22;10909;53.590;10.054;2022-10-31T05:52:27;16.60;79.60
21495;DHT22;10909;53.590;10.054;2022-10-31T05:54:52;16.60;78.90
21495;DHT22;10909;53.590;10.054;2022-10-31T05:57:18;16.60;79.00
21495;DHT22;10909;53.590;10.054;2022-10-31T05:59:43;16.60;79.00
21495;DHT22;10909;53.590;10.054;2022-10-31T06:02:09;16.60;78.90
21495;DHT22;10909;53.590;10.054;2022-10-31T06:04:35;16.60;79.00
21495;DHT22;10909;53.590;10.054;2022-10-31T06:07:01;16.60;79.00
21495;DHT22;10909;53.590;10.054;2022-10-31T06:09:27;16.60;79.00
21495;DHT22;10909;53.590;10.054;2022-10-31T06:11:52;16.60;79.00
21495;DHT22;10909;53.590;10.054;2022-10-31T06:14:18;16.60;78.90
21495;DHT22;10909;53.590;10.054;2022-10-31T06:16:43;16.60;79.00
21495;DHT22;10909;53.590;10.054;2022-10-31T06:19:09;16.60;78.90
21495;DHT22;10909;53.590;10.054;2022-10-31T06:21:34;16.60;78.90
21495;DHT22;10909;53.590;10.054;2022-10-31T06:24:01;16.60;79.00
21495;DHT22;10909;53.590;10.054;2022-10-31T06:26:27;16.60;79.10
21495;DHT22;10909;53.590;10.054;2022-10-31T06:28:52;16.60;79.20
21495;DHT22;10909;53.590;10.054;2022-10-31T06:31:18;16.60;79.30
21495;DHT22;10909;53.590;10.054;2022-10-31T06:33:44;16.60;79.30
21495;DHT22;10909;53.590;10.054;2022-10-31T06:36:10;16.60;79.40
21495;DHT22;10909;53.590;10.054;2022-10-31T06:38:35;16.70;79.40
21495;DHT22;10909;53.590;10.054;2022-10-31T06:41:05;16.70;79.50
21495;DHT22;10909;53.590;10.054;2022-10-31T06:43:31;16.70;79.50
21495;DHT22;10909;53.590;10.054;2022-10-31T06:45:57;16.70;79.50
21495;DHT22;10909;53.590;10.054;2022-10-31T06:48:22;16.70;79.50
21495;DHT22;10909;53.590;10.054;2022-10-31T06:50:48;16.70;79.50
21495;DHT22;10909;53.590;10.054;2022-10-31T06:53:14;16.70;79.50
21495;DHT22;10909;53.590;10.054;2022-10-31T06:55:40;16.70;79.50
21495;DHT22;10909;53.590;10.054;2022-10-31T06:58:08;16.70;79.40
21495;DHT22;10909;53.590;10.054;2022-10-31T07:00:34;16.70;79.30
21495;DHT22;10909;53.590;10.054;2022-10-31T07:03:10;16.70;79.30
21495;DHT22;10909;53.590;10.054;2022-10-31T07:05:37;16.80;79.60
21495;DHT22;10909;53.590;10.054;2022-10-31T07:08:05;16.80;79.40
21495;DHT22;10909;53.590;10.054;2022-10-31T07:10:33;16.70;79.40
21495;DHT22;10909;53.590;10.054;2022-10-31T07:13:01;16.70;79.40
21495;DHT22;10909;53.590;10.054;2022-10-31T07:15:29;16.70;79.40
21495;DHT22;10909;53.590;10.054;2022-10-31T07:17:59;16.70;79.60
21495;DHT22;10909;53.590;10.054;2022-10-31T07:20:26;16.80;79.80
21495;DHT22;10909;53.590;10.054;2022-10-31T07:22:52;16.70;79.60
21495;DHT22;10909;53.590;10.054;2022-10-31T07:25:18;16.70;79.80
21495;DHT22;10909;53.590;10.054;2022-10-31T07:27:44;16.70;79.80
21495;DHT22;10909;53.590;10.054;2022-10-31T07:30:11;16.80;79.90
21495;DHT22;10909;53.590;10.054;2022-10-31T07:32:40;16.80;80.00
21495;DHT22;10909;53.590;10.054;2022-10-31T07:35:12;16.80;80.10
21495;DHT22;10909;53.590;10.054;2022-10-31T07:37:38;16.80;80.20
21495;DHT22;10909;53.590;10.054;2022-10-31T07:40:05;16.80;80.10
21495;DHT22;10909;53.590;10.054;2022-10-31T07:42:36;16.90;80.20
21495;DHT22;10909;53.590;10.054;2022-10-31T07:45:03;16.90;80.10
21495;DHT22;10909;53.590;10.054;2022-10-31T07:47:28;16.90;80.00
21495;DHT22;10909;53.590;10.054;2022-10-31T07:49:54;16.90;79.80
21495;DHT22;10909;53.590;10.054;2022-10-31T07:52:20;16.90;79.70
21495;DHT22;10909;53.590;10.054;2022-10-31T07:54:45;16.90;79.70
21495;DHT22;10909;53.590;10.054;2022-10-31T07:57:11;16.90;79.80
21495;DHT22;10909;53.590;10.054;2022-10-31T07:59:37;16.90;79.80
21495;DHT22;10909;53.590;10.054;2022-10-31T08:02:02;17.00;79.80
21495;DHT22;10909;53.590;10.054;2022-10-31T08:04:28;17.00;79.80
21495;DHT22;10909;53.590;10.054;2022-10-31T08:06:54;17.00;79.80
21495;DHT22;10909;53.590;10.054;2022-10-31T08:09:19;17.00;80.10
21495;DHT22;10909;53.590;10.054;2022-10-31T08:11:45;17.00;80.30
21495;DHT22;10909;53.590;10.054;2022-10-31T08:14:11;17.00;80.20
21495;DHT22;10909;53.590;10.054;2022-10-31T08:16:37;17.10;80.10
21495;DHT22;10909;53.590;10.054;2022-10-31T08:19:02;17.10;80.10
21495;DHT22;10909;53.590;10.054;2022-10-31T08:21:28;17.10;80.20
21495;DHT22;10909;53.590;10.054;2022-10-31T08:23:54;17.20;80.30
21495;DHT22;10909;53.590;10.054;2022-10-31T08:26:20;17.20;80.30
21495;DHT22;10909;53.590;10.054;2022-10-31T08:28:45;17.30;80.30
21495;DHT22;10909;53.590;10.054;2022-10-31T08:31:11;17.30;80.10
21495;DHT22;10909;53.590;10.054;2022-10-31T08:33:37;17.30;80.00
21495;DHT22;10909;53.590;10.054;2022-10-31T08:36:03;17.30;79.80
21495;DHT22;10909;53.590;10.054;2022-10-31T08:38:28;17.40;79.80
21495;DHT22;10909;53.590;10.054;2022-10-31T08:40:54;17.40;79.90
21495;DHT22;10909;53.590;10.054;2022-10-31T08:43:19;17.40;79.80
21495;DHT22;10909;53.590;10.054;2022-10-31T08:45:48;17.40;79.80
21495;DHT22;10909;53.590;10.054;2022-10-31T08:48:16;17.50;79.90
21495;DHT22;10909;53.590;10.054;2022-10-31T08:50:43;17.50;79.90
21495;DHT22;10909;53.590;10.054;2022-10-31T08:53:16;17.50;79.80
21495;DHT22;10909;53.590;10.054;2022-10-31T08:55:43;17.50;79.80
21495;DHT22;10909;53.590;10.054;2022-10-31T08:58:17;17.50;79.70
21495;DHT22;10909;53.590;10.054;2022-10-31T09:00:44;17.50;79.60
21495;DHT22;10909;53.590;10.054;2022-10-31T09:03:14;17.60;79.50
21495;DHT22;10909;53.590;10.054;2022-10-31T09:05:41;17.60;79.40
21495;DHT22;10909;53.590;10.054;2022-10-31T09:08:07;17.60;79.10
21495;DHT22;10909;53.590;10.054;2022-10-31T09:10:35;17.60;79.00
21495;DHT22;10909;53.590;10.054;2022-10-31T09:13:04;17.50;78.90
21495;DHT22;10909;53.590;10.054;2022-10-31T09:15:37;17.50;78.90
21495;DHT22;10909;53.590;10.054;2022-10-31T09:18:04;17.50;78.80
21495;DHT22;10909;53.590;10.054;2022-10-31T09:20:32;17.50;78.80
21495;DHT22;10909;53.590;10.054;2022-10-31T09:23:06;17.50;79.80
21495;DHT22;10909;53.590;10.054;2022-10-31T09:25:33;17.50;79.30
21495;DHT22;10909;53.590;10.054;2022-10-31T09:28:01;17.50;79.50
21495;DHT22;10909;53.590;10.054;2022-10-31T09:30:28;17.50;79.60
21495;DHT22;10909;53.590;10.054;2022-10-31T09:32:59;17.60;79.60
21495;DHT22;10909;53.590;10.054;2022-10-31T09:35:27;17.60;80.00
21495;DHT22;10909;53.590;10.054;2022-10-31T09:38:06;17.60;79.60
21495;DHT22;10909;53.590;10.054;2022-10-31T09:48:23;17.90;79.50
21495;DHT22;10909;53.590;10.054;2022-10-31T09:51:11;17.90;79.50
21495;DHT22;10909;53.590;10.054;2022-10-31T09:56:14;18.00;79.20
21495;DHT22;10909;53.590;10.054;2022-10-31T09:58:47;18.00;79.00
21495;DHT22;10909;53.590;10.054;2022-10-31T10:01:45;18.10;78.90
21495;DHT22;10909;53.590;10.054;2022-10-31T10:04:17;18.10;78.80
21495;DHT22;10909;53.590;10.054;2022-10-31T10:06:47;18.10;78.80
21495;DHT22;10909;53.590;10.054;2022-10-31T10:09:15;18.20;78.80
21495;DHT22;10909;53.590;10.054;2022-10-31T10:25:22;18.40;77.90
21495;DHT22;10909;53.590;10.054;2022-10-31T10:30:47;18.50;77.70
21495;DHT22;10909;53.590;10.054;2022-10-31T10:33:20;18.60;77.20
21495;DHT22;10909;53.590;10.054;2022-10-31T10:36:08;18.60;77.20
21495;DHT22;10909;53.590;10.054;2022-10-31T10:39:01;18.60;76.90
21495;DHT22;10909;53.590;10.054;2022-10-31T10:41:31;18.60;77.10
21495;DHT22;10909;53.590;10.054;2022-10-31T10:43:57;18.70;77.00
21495;DHT22;10909;53.590;10.054;2022-10-31T10:46:32;18.70;77.10
21495;DHT22;10909;53.590;10.054;2022-10-31T10:52:19;18.80;76.80
21495;DHT22;10909;53.590;10.054;2022-10-31T10:55:00;18.80;77.00
21495;DHT22;10909;53.590;10.054;2022-10-31T11:02:46;19.00;76.60
21495;DHT22;10909;53.590;10.054;2022-10-31T11:05:28;19.00;76.40
21495;DHT22;10909;53.590;10.054;2022-10-31T11:07:55;19.10;76.00
21495;DHT22;10909;53.590;10.054;2022-10-31T11:10:21;19.10;76.30
21495;DHT22;10909;53.590;10.054;2022-10-31T11:18:24;19.30;75.40
21495;DHT22;10909;53.590;10.054;2022-10-31T11:20:55;19.40;75.50
21495;DHT22;10909;53.590;10.054;2022-10-31T11:23:23;19.40;75.00
21495;DHT22;10909;53.590;10.054;2022-10-31T11:26:00;19.40;74.80
21495;DHT22;10909;53.590;10.054;2022-10-31T11:28:27;19.40;74.10
21495;DHT22;10909;53.590;10.054;2022-10-31T11:31:07;19.40;74.10
21495;DHT22;10909;53.590;10.054;2022-10-31T11:33:46;19.30;73.60
21495;DHT22;10909;53.590;10.054;2022-10-31T11:36:27;19.30;73.60
21495;DHT22;10909;53.590;10.054;2022-10-31T11:38:55;19.30;74.40
21495;DHT22;10909;53.590;10.054;2022-10-31T11:41:34;19.20;73.60
21495;DHT22;10909;53.590;10.054;2022-10-31T11:44:04;19.20;73.40
21495;DHT22;10909;53.590;10.054;2022-10-31T11:46:35;19.10;73.40
21495;DHT22;10909;53.590;10.054;2022-10-31T11:49:03;19.10;73.30
21495;DHT22;10909;53.590;10.054;2022-10-31T11:51:33;19.00;73.40
21495;DHT22;10909;53.590;10.054;2022-10-31T11:54:01;19.00;73.60
21495;DHT22;10909;53.590;10.054;2022-10-31T11:56:38;19.00;73.80
21495;DHT22;10909;53.590;10.054;2022-10-31T11:59:06;19.00;73.90
21495;DHT22;10909;53.590;10.054;2022-10-31T12:01:40;19.10;74.50
21495;DHT22;10909;53.590;10.054;2022-10-31T12:04:12;19.20;74.80
21495;DHT22;10909;53.590;10.054;2022-10-31T12:06:40;19.20;74.80
21495;DHT22;10909;53.590;10.054;2022-10-31T12:17:15;19.50;73.90
21495;DHT22;10909;53.590;10.054;2022-10-31T12:25:50;19.60;73.00
21495;DHT22;10909;53.590;10.054;2022-10-31T12:37:06;19.80;72.80
21495;DHT22;10909;53.590;10.054;2022-10-31T12:39:44;19.80;72.50
21495;DHT22;10909;53.590;10.054;2022-10-31T12:42:26;19.80;72.60
21495;DHT22;10909;53.590;10.054;2022-10-31T12:45:06;19.70;72.70
21495;DHT22;10909;53.590;10.054;2022-10-31T12:58:49;20.30;73.00
21495;DHT22;10909;53.590;10.054;2022-10-31T13:04:21;20.40;71.10
21495;DHT22;10909;53.590;10.054;2022-10-31T13:07:02;20.30;70.70
21495;DHT22;10909;53.590;10.054;2022-10-31T13:09:38;20.20;70.40
21495;DHT22;10909;53.590;10.054;2022-10-31T13:12:15;20.10;70.50
21495;DHT22;10909;53.590;10.054;2022-10-31T13:14:54;20.00;70.60
21495;DHT22;10909;53.590;10.054;2022-10-31T13:19:58;19.90;71.00
21495;DHT22;10909;53.590;10.054;2022-10-31T13:22:31;19.90;71.30
21495;DHT22;10909;53.590;10.054;2022-10-31T13:25:16;19.90;70.90
21495;DHT22;10909;53.590;10.054;2022-10-31T13:27:52;19.90;70.20
21495;DHT22;10909;53.590;10.054;2022-10-31T13:30:23;19.80;70.20
21495;DHT22;10909;53.590;10.054;2022-10-31T13:32:58;19.70;70.20
21495;DHT22;10909;53.590;10.054;2022-10-31T13:40:50;19.50;70.60
21495;DHT22;10909;53.590;10.054;2022-10-31T13:46:25;19.70;72.40
21495;DHT22;10909;53.590;10.054;2022-10-31T13:48:50;19.80;72.80
21495;DHT22;10909;53.590;10.054;2022-10-31T13:51:26;20.00;73.30
21495;DHT22;10909;53.590;10.054;2022-10-31T13:54:21;20.30;73.30
21495;DHT22;10909;53.590;10.054;2022-10-31T13:56:51;20.70;72.70
21495;DHT22;10909;53.590;10.054;2022-10-31T13:59:21;21.10;74.30
21495;DHT22;10909;53.590;10.054;2022-10-31T14:02:22;21.50;74.30
21495;DHT22;10909;53.590;10.054;2022-10-31T14:04:51;21.80;73.50
21495;DHT22;10909;53.590;10.054;2022-10-31T14:07:20;22.20;71.60
21495;DHT22;10909;53.590;10.054;2022-10-31T14:10:03;22.50;72.70
21495;DHT22;10909;53.590;10.054;2022-10-31T14:12:31;22.70;69.50
21495;DHT22;10909;53.590;10.054;2022-10-31T14:17:57;23.10;68.70
21495;DHT22;10909;53.590;10.054;2022-10-31T14:20:39;23.20;67.50
21495;DHT22;10909;53.590;10.054;2022-10-31T14:29:21;23.20;64.20
21495;DHT22;10909;53.590;10.054;2022-10-31T14:35:15;22.90;64.10
21495;DHT22;10909;53.590;10.054;2022-10-31T14:40:33;22.60;63.60
21495;DHT22;10909;53.590;10.054;2022-10-31T14:46:25;22.30;63.50
21495;DHT22;10909;53.590;10.054;2022-10-31T14:51:50;22.00;63.30
21495;DHT22;10909;53.590;10.054;2022-10-31T14:54:30;21.80;63.60
21495;DHT22;10909;53.590;10.054;2022-10-31T14:57:05;21.50;63.50
21495;DHT22;10909;53.590;10.054;2022-10-31T14:59:36;21.30;63.70
21495;DHT22;10909;53.590;10.054;2022-10-31T15:02:31;21.10;64.00
21495;DHT22;10909;53.590;10.054;2022-10-31T15:05:09;20.90;64.10
21495;DHT22;10909;53.590;10.054;2022-10-31T15:07:35;20.80;64.70
21495;DHT22;10909;53.590;10.054;2022-10-31T15:10:04;20.70;65.00
21495;DHT22;10909;53.590;10.054;2022-10-31T15:12:35;20.50;65.00
21495;DHT22;10909;53.590;10.054;2022-10-31T15:15:22;20.40;65.10
21495;DHT22;10909;53.590;10.054;2022-10-31T15:17:53;20.30;65.00
21495;DHT22;10909;53.590;10.054;2022-10-31T15:20:25;20.20;65.20
21495;DHT22;10909;53.590;10.054;2022-10-31T15:22:52;20.00;65.10
21495;DHT22;10909;53.590;10.054;2022-10-31T15:25:23;19.80;65.20
21495;DHT22;10909;53.590;10.054;2022-10-31T15:27:53;19.80;65.50
21495;DHT22;10909;53.590;10.054;2022-10-31T15:30:24;19.70;65.70
21495;DHT22;10909;53.590;10.054;2022-10-31T15:32:51;19.50;65.90
21495;DHT22;10909;53.590;10.054;2022-10-31T15:35:27;19.40;66.20
21495;DHT22;10909;53.590;10.054;2022-10-31T15:37:53;19.40;66.40
21495;DHT22;10909;53.590;10.054;2022-10-31T15:40:21;19.30;66.40
21495;DHT22;10909;53.590;10.054;2022-10-31T15:42:51;19.20;66.50
21495;DHT22;10909;53.590;10.054;2022-10-31T15:45:23;19.20;66.60
21495;DHT22;10909;53.590;10.054;2022-10-31T15:47:59;19.00;66.60
21495;DHT22;10909;53.590;10.054;2022-10-31T15:50:31;19.00;66.70
21495;DHT22;10909;53.590;10.054;2022-10-31T15:52:58;18.80;66.80
21495;DHT22;10909;53.590;10.054;2022-10-31T15:55:26;18.70;66.90
21495;DHT22;10909;53.590;10.054;2022-10-31T15:58:00;18.60;67.10
21495;DHT22;10909;53.590;10.054;2022-10-31T16:00:32;18.50;67.30
21495;DHT22;10909;53.590;10.054;2022-10-31T16:03:26;18.40;67.60
21495;DHT22;10909;53.590;10.054;2022-10-31T16:05:53;18.30;67.90
21495;DHT22;10909;53.590;10.054;2022-10-31T16:10:57;18.10;68.20
21495;DHT22;10909;53.590;10.054;2022-10-31T16:13:28;18.00;68.30
21495;DHT22;10909;53.590;10.054;2022-10-31T16:16:00;17.90;68.50
21495;DHT22;10909;53.590;10.054;2022-10-31T16:18:28;17.90;68.60
21495;DHT22;10909;53.590;10.054;2022-10-31T16:20:55;17.80;68.80
21495;DHT22;10909;53.590;10.054;2022-10-31T16:23:23;17.80;69.00
21495;DHT22;10909;53.590;10.054;2022-10-31T16:25:50;17.70;69.20
21495;DHT22;10909;53.590;10.054;2022-10-31T16:28:22;17.70;69.40
21495;DHT22;10909;53.590;10.054;2022-10-31T16:30:51;17.70;69.60
21495;DHT22;10909;53.590;10.054;2022-10-31T16:35:45;17.60;69.70
21495;DHT22;10909;53.590;10.054;2022-10-31T16:38:11;17.60;69.70
21495;DHT22;10909;53.590;10.054;2022-10-31T16:40:38;17.50;69.70
21495;DHT22;10909;53.590;10.054;2022-10-31T16:43:04;17.50;69.90
21495;DHT22;10909;53.590;10.054;2022-10-31T16:45:31;17.50;70.00
21495;DHT22;10909;53.590;10.054;2022-10-31T16:48:05;17.40;70.20
21495;DHT22;10909;53.590;10.054;2022-10-31T16:50:32;17.40;71.20
21495;DHT22;10909;53.590;10.054;2022-10-31T16:52:58;17.40;70.40
21495;DHT22;10909;53.590;10.054;2022-10-31T16:55:24;17.30;70.40
21495;DHT22;10909;53.590;10.054;2022-10-31T16:57:55;17.30;70.60
21495;DHT22;10909;53.590;10.054;2022-10-31T17:00:23;17.30;70.70
21495;DHT22;10909;53.590;10.054;2022-10-31T17:02:55;17.30;70.80
21495;DHT22;10909;53.590;10.054;2022-10-31T17:05:24;17.30;71.10
21495;DHT22;10909;53.590;10.054;2022-10-31T17:07:57;17.30;71.10
21495;DHT22;10909;53.590;10.054;2022-10-31T17:10:23;17.30;71.10
21495;DHT22;10909;53.590;10.054;2022-10-31T17:12:50;17.20;71.00
21495;DHT22;10909;53.590;10.054;2022-10-31T17:15:22;17.20;71.20
21495;DHT22;10909;53.590;10.054;2022-10-31T17:17:49;17.20;71.40
21495;DHT22;10909;53.590;10.054;2022-10-31T17:20:22;17.20;71.40
21495;DHT22;10909;53.590;10.054;2022-10-31T17:22:48;17.20;71.60
21495;DHT22;10909;53.590;10.054;2022-10-31T17:25:16;17.20;71.50
21495;DHT22;10909;53.590;10.054;2022-10-31T17:27:42;17.20;71.60
21495;DHT22;10909;53.590;10.054;2022-10-31T17:30:10;17.20;71.60
21495;DHT22;10909;53.590;10.054;2022-10-31T17:32:36;17.20;71.90
21495;DHT22;10909;53.590;10.054;2022-10-31T17:35:02;17.20;71.90
21495;DHT22;10909;53.590;10.054;2022-10-31T17:37:28;17.20;71.90
21495;DHT22;10909;53.590;10.054;2022-10-31T17:39:53;17.20;71.90
21495;DHT22;10909;53.590;10.054;2022-10-31T17:42:19;17.20;71.90
21495;DHT22;10909;53.590;10.054;2022-10-31T17:44:45;17.20;71.90
21495;DHT22;10909;53.590;10.054;2022-10-31T17:47:11;17.20;71.90
21495;DHT22;10909;53.590;10.054;2022-10-31T17:49:37;17.20;72.00
21495;DHT22;10909;53.590;10.054;2022-10-31T17:52:03;17.20;72.10
21495;DHT22;10909;53.590;10.054;2022-10-31T17:54:28;17.20;72.00
21495;DHT22;10909;53.590;10.054;2022-10-31T17:56:54;17.20;72.10
21495;DHT22;10909;53.590;10.054;2022-10-31T17:59:19;17.20;72.00